sensor_id;sensor_type;location;lat;lon;timestamp;P1;durP1;ratioP1;P2;durP2;ratioP2
54665;SDS011;40566;50.006;36.180;2023-01-20T00:03:24;34.60;;;11.15;;
54665;SDS011;40566;50.006;36.180;2023-01-20T00:08:25;30.38;;;10.65;;
54665;SDS011;40566;50.006;36.180;2023-01-20T00:13:25;44.65;;;13.18;;
54665;SDS011;40566;50.006;36.180;2023-01-20T00:18:26;38.00;;;12.10;;
54665;SDS011;40566;50.006;36.180;2023-01-20T00:23:26;32.30;;;12.10;;
54665;SDS011;40566;50.006;36.180;2023-01-20T00:28:27;36.92;;;12.23;;
54665;SDS011;40566;50.006;36.180;2023-01-20T00:33:28;30.15;;;11.23;;
54665;SDS011;40566;50.006;36.180;2023-01-20T00:38:29;32.78;;;11.70;;
54665;SDS011;40566;50.006;36.180;2023-01-20T00:43:29;33.25;;;11.27;;
54665;SDS011;40566;50.006;36.180;2023-01-20T00:48:30;31.98;;;11.55;;
54665;SDS011;40566;50.006;36.180;2023-01-20T00:53:31;31.55;;;10.23;;
54665;SDS011;40566;50.006;36.180;2023-01-20T00:58:32;28.75;;;10.18;;
54665;SDS011;40566;50.006;36.180;2023-01-20T01:03:32;35.85;;;11.88;;
54665;SDS011;40566;50.006;36.180;2023-01-20T01:08:33;36.10;;;11.85;;
54665;SDS011;40566;50.006;36.180;2023-01-20T01:13:35;25.15;;;10.00;;
54665;SDS011;40566;50.006;36.180;2023-01-20T01:18:37;34.95;;;10.57;;
54665;SDS011;40566;50.006;36.180;2023-01-20T01:23:38;34.55;;;10.95;;
54665;SDS011;40566;50.006;36.180;2023-01-20T01:28:38;34.92;;;11.38;;
54665;SDS011;40566;50.006;36.180;2023-01-20T01:33:39;34.72;;;11.32;;
54665;SDS011;40566;50.006;36.180;2023-01-20T01:38:40;33.95;;;11.00;;
54665;SDS011;40566;50.006;36.180;2023-01-20T01:44:01;28.58;;;10.85;;
54665;SDS011;40566;50.006;36.180;2023-01-20T01:54:22;33.40;;;10.82;;
54665;SDS011;40566;50.006;36.180;2023-01-20T01:59:26;34.63;;;11.05;;
54665;SDS011;40566;50.006;36.180;2023-01-20T02:04:27;34.20;;;11.00;;
54665;SDS011;40566;50.006;36.180;2023-01-20T02:09:28;36.53;;;11.60;;
54665;SDS011;40566;50.006;36.180;2023-01-20T02:14:30;43.78;;;14.10;;
54665;SDS011;40566;50.006;36.180;2023-01-20T02:36:14;33.22;;;11.10;;
54665;SDS011;40566;50.006;36.180;2023-01-20T02:46:40;32.38;;;11.35;;
54665;SDS011;40566;50.006;36.180;2023-01-20T02:52:04;44.88;;;11.90;;
54665;SDS011;40566;50.006;36.180;2023-01-20T02:57:11;33.00;;;10.55;;
54665;SDS011;40566;50.006;36.180;2023-01-20T03:02:19;34.13;;;11.98;;
54665;SDS011;40566;50.006;36.180;2023-01-20T03:07:22;32.13;;;11.02;;
54665;SDS011;40566;50.006;36.180;2023-01-20T03:12:30;33.70;;;10.65;;
54665;SDS011;40566;50.006;36.180;2023-01-20T03:17:36;35.70;;;11.38;;
54665;SDS011;40566;50.006;36.180;2023-01-20T03:22:36;29.90;;;10.82;;
54665;SDS011;40566;50.006;36.180;2023-01-20T03:27:37;33.47;;;10.50;;
54665;SDS011;40566;50.006;36.180;2023-01-20T03:32:38;31.20;;;10.02;;
54665;SDS011;40566;50.006;36.180;2023-01-20T03:37:41;36.20;;;10.80;;
54665;SDS011;40566;50.006;36.180;2023-01-20T03:42:51;32.80;;;10.98;;
54665;SDS011;40566;50.006;36.180;2023-01-20T03:48:07;39.38;;;12.88;;
54665;SDS011;40566;50.006;36.180;2023-01-20T03:53:32;40.25;;;14.15;;
54665;SDS011;40566;50.006;36.180;2023-01-20T03:58:51;41.28;;;13.70;;
54665;SDS011;40566;50.006;36.180;2023-01-20T04:03:55;35.95;;;13.15;;
54665;SDS011;40566;50.006;36.180;2023-01-20T04:09:07;38.45;;;13.10;;
54665;SDS011;40566;50.006;36.180;2023-01-20T04:14:13;45.33;;;14.13;;
54665;SDS011;40566;50.006;36.180;2023-01-20T04:19:13;41.92;;;12.90;;
54665;SDS011;40566;50.006;36.180;2023-01-20T04:29:39;40.13;;;12.13;;
54665;SDS011;40566;50.006;36.180;2023-01-20T04:34:40;42.30;;;13.65;;
54665;SDS011;40566;50.006;36.180;2023-01-20T04:39:41;34.00;;;12.32;;
54665;SDS011;40566;50.006;36.180;2023-01-20T04:44:41;43.30;;;12.85;;
54665;SDS011;40566;50.006;36.180;2023-01-20T04:49:42;45.80;;;13.20;;
54665;SDS011;40566;50.006;36.180;2023-01-20T04:54:43;39.70;;;13.50;;
54665;SDS011;40566;50.006;36.180;2023-01-20T04:59:43;38.05;;;12.68;;
54665;SDS011;40566;50.006;36.180;2023-01-20T05:04:44;40.30;;;13.75;;
54665;SDS011;40566;50.006;36.180;2023-01-20T05:09:44;41.03;;;12.90;;
54665;SDS011;40566;50.006;36.180;2023-01-20T05:14:45;39.08;;;13.68;;
54665;SDS011;40566;50.006;36.180;2023-01-20T05:19:45;43.33;;;13.45;;
54665;SDS011;40566;50.006;36.180;2023-01-20T05:24:46;38.95;;;14.13;;
54665;SDS011;40566;50.006;36.180;2023-01-20T05:29:46;37.22;;;13.07;;
54665;SDS011;40566;50.006;36.180;2023-01-20T05:34:47;33.85;;;11.68;;
54665;SDS011;40566;50.006;36.180;2023-01-20T05:39:48;40.10;;;12.98;;
54665;SDS011;40566;50.006;36.180;2023-01-20T05:44:48;43.42;;;14.38;;
54665;SDS011;40566;50.006;36.180;2023-01-20T05:49:49;37.92;;;14.05;;
54665;SDS011;40566;50.006;36.180;2023-01-20T05:54:49;39.00;;;13.60;;
54665;SDS011;40566;50.006;36.180;2023-01-20T05:59:50;44.65;;;14.98;;
54665;SDS011;40566;50.006;36.180;2023-01-20T06:04:51;37.72;;;13.63;;
54665;SDS011;40566;50.006;36.180;2023-01-20T06:09:52;36.47;;;14.20;;
54665;SDS011;40566;50.006;36.180;2023-01-20T06:14:53;44.83;;;13.57;;
54665;SDS011;40566;50.006;36.180;2023-01-20T06:19:53;44.92;;;15.13;;
54665;SDS011;40566;50.006;36.180;2023-01-20T06:24:54;41.85;;;13.23;;
54665;SDS011;40566;50.006;36.180;2023-01-20T06:29:54;40.47;;;14.40;;
54665;SDS011;40566;50.006;36.180;2023-01-20T06:34:55;47.65;;;15.02;;
54665;SDS011;40566;50.006;36.180;2023-01-20T06:39:55;45.13;;;14.55;;
54665;SDS011;40566;50.006;36.180;2023-01-20T06:44:56;51.17;;;16.13;;
54665;SDS011;40566;50.006;36.180;2023-01-20T06:49:56;46.45;;;15.90;;
54665;SDS011;40566;50.006;36.180;2023-01-20T06:54:57;49.05;;;17.33;;
54665;SDS011;40566;50.006;36.180;2023-01-20T06:59:58;49.70;;;15.63;;
54665;SDS011;40566;50.006;36.180;2023-01-20T07:04:58;47.28;;;17.25;;
54665;SDS011;40566;50.006;36.180;2023-01-20T07:10:00;49.70;;;16.05;;
54665;SDS011;40566;50.006;36.180;2023-01-20T07:15:01;45.28;;;15.75;;
54665;SDS011;40566;50.006;36.180;2023-01-20T07:20:02;44.30;;;15.73;;
54665;SDS011;40566;50.006;36.180;2023-01-20T07:25:03;42.63;;;15.63;;
54665;SDS011;40566;50.006;36.180;2023-01-20T07:30:04;52.20;;;16.70;;
54665;SDS011;40566;50.006;36.180;2023-01-20T07:35:05;49.65;;;15.48;;
54665;SDS011;40566;50.006;36.180;2023-01-20T07:40:06;47.90;;;16.20;;
54665;SDS011;40566;50.006;36.180;2023-01-20T07:45:08;50.17;;;16.95;;
54665;SDS011;40566;50.006;36.180;2023-01-20T07:50:09;45.13;;;15.85;;
54665;SDS011;40566;50.006;36.180;2023-01-20T07:55:09;42.50;;;15.32;;
54665;SDS011;40566;50.006;36.180;2023-01-20T08:00:10;54.72;;;17.38;;
54665;SDS011;40566;50.006;36.180;2023-01-20T08:05:11;45.33;;;17.27;;
54665;SDS011;40566;50.006;36.180;2023-01-20T08:10:12;52.20;;;17.23;;
54665;SDS011;40566;50.006;36.180;2023-01-20T08:15:13;52.50;;;17.88;;
54665;SDS011;40566;50.006;36.180;2023-01-20T08:20:13;51.72;;;18.67;;
54665;SDS011;40566;50.006;36.180;2023-01-20T08:25:14;62.65;;;22.55;;
54665;SDS011;40566;50.006;36.180;2023-01-20T08:30:14;48.67;;;17.35;;
54665;SDS011;40566;50.006;36.180;2023-01-20T08:35:15;50.58;;;17.70;;
54665;SDS011;40566;50.006;36.180;2023-01-20T08:40:16;44.63;;;16.80;;
54665;SDS011;40566;50.006;36.180;2023-01-20T08:45:17;52.00;;;18.40;;
54665;SDS011;40566;50.006;36.180;2023-01-20T08:50:17;50.13;;;19.00;;
54665;SDS011;40566;50.006;36.180;2023-01-20T08:55:18;53.55;;;19.45;;
54665;SDS011;40566;50.006;36.180;2023-01-20T09:00:19;46.80;;;16.70;;
54665;SDS011;40566;50.006;36.180;2023-01-20T09:05:20;42.70;;;15.48;;
54665;SDS011;40566;50.006;36.180;2023-01-20T09:10:21;49.33;;;18.30;;
54665;SDS011;40566;50.006;36.180;2023-01-20T09:15:22;49.17;;;18.70;;
54665;SDS011;40566;50.006;36.180;2023-01-20T09:20:22;40.60;;;15.20;;
54665;SDS011;40566;50.006;36.180;2023-01-20T09:25:23;48.80;;;18.13;;
54665;SDS011;40566;50.006;36.180;2023-01-20T09:30:24;44.28;;;17.13;;
54665;SDS011;40566;50.006;36.180;2023-01-20T09:35:24;40.97;;;15.75;;
54665;SDS011;40566;50.006;36.180;2023-01-20T09:40:27;51.28;;;17.33;;
54665;SDS011;40566;50.006;36.180;2023-01-20T09:52:17;44.20;;;16.27;;
54665;SDS011;40566;50.006;36.180;2023-01-20T09:57:14;48.55;;;18.15;;
54665;SDS011;40566;50.006;36.180;2023-01-20T10:02:22;37.70;;;14.23;;
54665;SDS011;40566;50.006;36.180;2023-01-20T10:07:32;45.67;;;15.63;;
54665;SDS011;40566;50.006;36.180;2023-01-20T10:12:41;58.13;;;19.85;;
54665;SDS011;40566;50.006;36.180;2023-01-20T10:28:29;42.95;;;15.73;;
54665;SDS011;40566;50.006;36.180;2023-01-20T10:33:38;39.30;;;16.02;;
54665;SDS011;40566;50.006;36.180;2023-01-20T10:38:49;38.70;;;16.58;;
54665;SDS011;40566;50.006;36.180;2023-01-20T10:43:55;41.78;;;16.63;;
54665;SDS011;40566;50.006;36.180;2023-01-20T10:59:47;42.17;;;16.95;;
54665;SDS011;40566;50.006;36.180;2023-01-20T11:04:56;59.55;;;23.60;;
54665;SDS011;40566;50.006;36.180;2023-01-20T11:10:00;46.72;;;16.52;;
54665;SDS011;40566;50.006;36.180;2023-01-20T11:20:20;39.38;;;15.50;;
54665;SDS011;40566;50.006;36.180;2023-01-20T11:25:25;37.35;;;15.60;;
54665;SDS011;40566;50.006;36.180;2023-01-20T11:30:30;41.10;;;15.82;;
54665;SDS011;40566;50.006;36.180;2023-01-20T11:35:33;45.97;;;15.52;;
54665;SDS011;40566;50.006;36.180;2023-01-20T11:40:33;49.28;;;18.15;;
54665;SDS011;40566;50.006;36.180;2023-01-20T11:45:34;39.33;;;15.55;;
54665;SDS011;40566;50.006;36.180;2023-01-20T11:50:39;49.63;;;19.50;;
54665;SDS011;40566;50.006;36.180;2023-01-20T11:55:44;36.83;;;14.48;;
54665;SDS011;40566;50.006;36.180;2023-01-20T12:00:49;34.65;;;13.98;;
54665;SDS011;40566;50.006;36.180;2023-01-20T12:05:56;45.92;;;17.50;;
54665;SDS011;40566;50.006;36.180;2023-01-20T12:11:00;42.77;;;16.10;;
54665;SDS011;40566;50.006;36.180;2023-01-20T12:16:04;36.72;;;13.85;;
54665;SDS011;40566;50.006;36.180;2023-01-20T12:21:12;39.30;;;14.02;;
54665;SDS011;40566;50.006;36.180;2023-01-20T12:26:18;41.65;;;16.27;;
54665;SDS011;40566;50.006;36.180;2023-01-20T12:31:20;60.47;;;22.50;;
54665;SDS011;40566;50.006;36.180;2023-01-20T12:36:30;37.65;;;13.75;;
54665;SDS011;40566;50.006;36.180;2023-01-20T13:14:20;36.17;;;13.48;;
54665;SDS011;40566;50.006;36.180;2023-01-20T13:19:33;26.83;;;11.65;;
54665;SDS011;40566;50.006;36.180;2023-01-20T13:24:37;52.10;;;17.25;;
54665;SDS011;40566;50.006;36.180;2023-01-20T13:29:52;36.67;;;13.40;;
54665;SDS011;40566;50.006;36.180;2023-01-20T13:34:56;31.70;;;12.73;;
54665;SDS011;40566;50.006;36.180;2023-01-20T13:39:57;31.65;;;11.90;;
54665;SDS011;40566;50.006;36.180;2023-01-20T13:51:17;27.52;;;11.10;;
54665;SDS011;40566;50.006;36.180;2023-01-20T14:00:41;36.00;;;12.70;;
54665;SDS011;40566;50.006;36.180;2023-01-20T14:05:42;30.88;;;11.88;;
54665;SDS011;40566;50.006;36.180;2023-01-20T14:10:42;39.65;;;12.93;;
54665;SDS011;40566;50.006;36.180;2023-01-20T14:15:46;32.53;;;11.05;;
54665;SDS011;40566;50.006;36.180;2023-01-20T14:20:55;35.35;;;11.75;;
54665;SDS011;40566;50.006;36.180;2023-01-20T14:26:05;25.08;;;9.95;;
54665;SDS011;40566;50.006;36.180;2023-01-20T14:36:18;31.70;;;10.25;;
54665;SDS011;40566;50.006;36.180;2023-01-20T14:41:23;28.13;;;8.95;;
54665;SDS011;40566;50.006;36.180;2023-01-20T14:46:26;24.70;;;10.20;;
54665;SDS011;40566;50.006;36.180;2023-01-20T14:51:28;30.90;;;10.52;;
54665;SDS011;40566;50.006;36.180;2023-01-20T14:56:28;33.60;;;11.65;;
54665;SDS011;40566;50.006;36.180;2023-01-20T15:01:29;34.80;;;10.93;;
54665;SDS011;40566;50.006;36.180;2023-01-20T15:06:30;24.27;;;9.13;;
54665;SDS011;40566;50.006;36.180;2023-01-20T15:11:30;27.05;;;10.10;;
54665;SDS011;40566;50.006;36.180;2023-01-20T15:21:35;27.13;;;10.05;;
54665;SDS011;40566;50.006;36.180;2023-01-20T15:26:36;26.70;;;9.82;;
54665;SDS011;40566;50.006;36.180;2023-01-20T15:31:37;25.90;;;9.15;;
54665;SDS011;40566;50.006;36.180;2023-01-20T15:36:38;23.10;;;8.65;;
54665;SDS011;40566;50.006;36.180;2023-01-20T15:41:39;32.13;;;10.23;;
54665;SDS011;40566;50.006;36.180;2023-01-20T15:46:40;29.45;;;10.55;;
54665;SDS011;40566;50.006;36.180;2023-01-20T15:51:40;31.20;;;10.85;;
54665;SDS011;40566;50.006;36.180;2023-01-20T15:56:44;30.73;;;9.73;;
54665;SDS011;40566;50.006;36.180;2023-01-20T16:01:45;26.80;;;9.75;;
54665;SDS011;40566;50.006;36.180;2023-01-20T16:06:47;35.55;;;12.55;;
54665;SDS011;40566;50.006;36.180;2023-01-20T16:11:50;25.42;;;9.30;;
54665;SDS011;40566;50.006;36.180;2023-01-20T16:16:51;33.72;;;9.85;;
54665;SDS011;40566;50.006;36.180;2023-01-20T16:21:51;29.60;;;10.15;;
54665;SDS011;40566;50.006;36.180;2023-01-20T16:26:52;32.67;;;10.10;;
54665;SDS011;40566;50.006;36.180;2023-01-20T16:31:52;27.35;;;9.48;;
54665;SDS011;40566;50.006;36.180;2023-01-20T16:36:53;26.38;;;9.18;;
54665;SDS011;40566;50.006;36.180;2023-01-20T16:41:54;29.10;;;8.57;;
54665;SDS011;40566;50.006;36.180;2023-01-20T16:46:54;25.52;;;8.23;;
54665;SDS011;40566;50.006;36.180;2023-01-20T16:51:55;23.40;;;8.00;;
54665;SDS011;40566;50.006;36.180;2023-01-20T16:56:55;24.02;;;7.95;;
54665;SDS011;40566;50.006;36.180;2023-01-20T17:01:56;25.65;;;8.02;;
54665;SDS011;40566;50.006;36.180;2023-01-20T17:06:56;20.52;;;7.50;;
54665;SDS011;40566;50.006;36.180;2023-01-20T17:11:57;22.42;;;7.05;;
54665;SDS011;40566;50.006;36.180;2023-01-20T17:16:58;23.23;;;7.30;;
54665;SDS011;40566;50.006;36.180;2023-01-20T17:21:59;22.48;;;7.15;;
54665;SDS011;40566;50.006;36.180;2023-01-20T17:26:59;20.23;;;7.53;;
54665;SDS011;40566;50.006;36.180;2023-01-20T17:32:00;22.08;;;6.63;;
54665;SDS011;40566;50.006;36.180;2023-01-20T17:37:00;24.25;;;7.13;;
54665;SDS011;40566;50.006;36.180;2023-01-20T17:42:01;27.02;;;7.70;;
54665;SDS011;40566;50.006;36.180;2023-01-20T17:47:02;28.30;;;8.18;;
54665;SDS011;40566;50.006;36.180;2023-01-20T17:52:03;22.40;;;7.82;;
54665;SDS011;40566;50.006;36.180;2023-01-20T17:57:05;16.38;;;6.80;;
54665;SDS011;40566;50.006;36.180;2023-01-20T18:02:05;19.40;;;6.55;;
54665;SDS011;40566;50.006;36.180;2023-01-20T18:07:09;17.65;;;7.38;;
54665;SDS011;40566;50.006;36.180;2023-01-20T18:12:10;15.32;;;4.90;;
54665;SDS011;40566;50.006;36.180;2023-01-20T18:17:12;13.30;;;4.93;;
54665;SDS011;40566;50.006;36.180;2023-01-20T18:22:13;16.92;;;5.65;;
54665;SDS011;40566;50.006;36.180;2023-01-20T18:27:14;15.70;;;5.72;;
54665;SDS011;40566;50.006;36.180;2023-01-20T18:32:14;12.50;;;4.95;;
54665;SDS011;40566;50.006;36.180;2023-01-20T18:37:15;16.13;;;4.90;;
54665;SDS011;40566;50.006;36.180;2023-01-20T18:42:15;20.88;;;5.93;;
54665;SDS011;40566;50.006;36.180;2023-01-20T18:47:16;14.90;;;5.20;;
54665;SDS011;40566;50.006;36.180;2023-01-20T18:52:17;19.58;;;5.15;;
54665;SDS011;40566;50.006;36.180;2023-01-20T18:57:18;13.88;;;4.45;;
54665;SDS011;40566;50.006;36.180;2023-01-20T19:02:18;15.98;;;5.18;;
54665;SDS011;40566;50.006;36.180;2023-01-20T19:07:19;18.30;;;5.28;;
54665;SDS011;40566;50.006;36.180;2023-01-20T19:12:20;16.20;;;5.22;;
54665;SDS011;40566;50.006;36.180;2023-01-20T19:17:20;17.52;;;5.70;;
54665;SDS011;40566;50.006;36.180;2023-01-20T19:22:21;12.75;;;4.72;;
54665;SDS011;40566;50.006;36.180;2023-01-20T19:27:21;15.35;;;4.68;;
54665;SDS011;40566;50.006;36.180;2023-01-20T19:32:22;14.15;;;4.28;;
54665;SDS011;40566;50.006;36.180;2023-01-20T19:37:23;13.20;;;3.92;;
54665;SDS011;40566;50.006;36.180;2023-01-20T19:42:23;12.25;;;4.40;;
54665;SDS011;40566;50.006;36.180;2023-01-20T19:47:24;19.02;;;5.20;;
54665;SDS011;40566;50.006;36.180;2023-01-20T19:52:26;16.55;;;5.15;;
54665;SDS011;40566;50.006;36.180;2023-01-20T19:57:27;11.90;;;5.05;;
54665;SDS011;40566;50.006;36.180;2023-01-20T20:02:28;15.23;;;4.57;;
54665;SDS011;40566;50.006;36.180;2023-01-20T20:07:29;14.77;;;4.05;;
54665;SDS011;40566;50.006;36.180;2023-01-20T20:12:29;13.82;;;4.63;;
54665;SDS011;40566;50.006;36.180;2023-01-20T20:17:30;10.73;;;3.90;;
54665;SDS011;40566;50.006;36.180;2023-01-20T20:22:31;16.70;;;3.78;;
54665;SDS011;40566;50.006;36.180;2023-01-20T20:27:32;16.10;;;4.35;;
54665;SDS011;40566;50.006;36.180;2023-01-20T20:32:33;16.83;;;4.00;;
54665;SDS011;40566;50.006;36.180;2023-01-20T20:37:33;12.57;;;3.42;;
54665;SDS011;40566;50.006;36.180;2023-01-20T20:42:34;10.85;;;3.90;;
54665;SDS011;40566;50.006;36.180;2023-01-20T20:47:34;14.75;;;4.00;;
54665;SDS011;40566;50.006;36.180;2023-01-20T20:52:35;14.70;;;4.00;;
54665;SDS011;40566;50.006;36.180;2023-01-20T20:57:35;14.55;;;3.45;;
54665;SDS011;40566;50.006;36.180;2023-01-20T21:02:36;16.40;;;3.58;;
54665;SDS011;40566;50.006;36.180;2023-01-20T21:07:38;13.63;;;3.30;;
54665;SDS011;40566;50.006;36.180;2023-01-20T21:12:39;14.88;;;3.38;;
54665;SDS011;40566;50.006;36.180;2023-01-20T21:17:40;16.17;;;3.78;;
54665;SDS011;40566;50.006;36.180;2023-01-20T21:22:41;14.63;;;3.45;;
54665;SDS011;40566;50.006;36.180;2023-01-20T21:27:42;10.63;;;2.80;;
54665;SDS011;40566;50.006;36.180;2023-01-20T21:32:43;12.65;;;3.13;;
54665;SDS011;40566;50.006;36.180;2023-01-20T21:37:43;6.20;;;2.17;;
54665;SDS011;40566;50.006;36.180;2023-01-20T21:42:44;12.18;;;3.22;;
54665;SDS011;40566;50.006;36.180;2023-01-20T21:47:45;8.90;;;2.83;;
54665;SDS011;40566;50.006;36.180;2023-01-20T21:52:46;9.43;;;2.65;;
54665;SDS011;40566;50.006;36.180;2023-01-20T21:57:49;9.02;;;2.63;;
54665;SDS011;40566;50.006;36.180;2023-01-20T22:02:50;9.10;;;2.63;;
54665;SDS011;40566;50.006;36.180;2023-01-20T22:07:50;5.13;;;2.60;;
54665;SDS011;40566;50.006;36.180;2023-01-20T22:12:51;7.35;;;2.42;;
54665;SDS011;40566;50.006;36.180;2023-01-20T22:17:52;10.88;;;2.78;;
54665;SDS011;40566;50.006;36.180;2023-01-20T22:22:52;11.30;;;2.58;;
54665;SDS011;40566;50.006;36.180;2023-01-20T22:27:53;12.82;;;3.28;;
54665;SDS011;40566;50.006;36.180;2023-01-20T22:32:53;7.50;;;2.38;;
54665;SDS011;40566;50.006;36.180;2023-01-20T22:37:54;5.07;;;2.13;;
54665;SDS011;40566;50.006;36.180;2023-01-20T22:42:55;8.27;;;2.47;;
54665;SDS011;40566;50.006;36.180;2023-01-20T22:47:55;6.50;;;2.38;;
54665;SDS011;40566;50.006;36.180;2023-01-20T22:52:56;12.13;;;3.33;;
54665;SDS011;40566;50.006;36.180;2023-01-20T22:57:57;14.63;;;3.40;;
54665;SDS011;40566;50.006;36.180;2023-01-20T23:02:58;8.52;;;2.85;;
54665;SDS011;40566;50.006;36.180;2023-01-20T23:07:58;11.23;;;2.58;;
54665;SDS011;40566;50.006;36.180;2023-01-20T23:12:59;6.50;;;2.28;;
54665;SDS011;40566;50.006;36.180;2023-01-20T23:17:59;5.63;;;1.80;;
54665;SDS011;40566;50.006;36.180;2023-01-20T23:23:00;4.78;;;1.55;;
54665;SDS011;40566;50.006;36.180;2023-01-20T23:28:01;3.92;;;1.40;;
54665;SDS011;40566;50.006;36.180;2023-01-20T23:33:03;5.80;;;1.48;;
54665;SDS011;40566;50.006;36.180;2023-01-20T23:38:07;4.45;;;1.40;;
54665;SDS011;40566;50.006;36.180;2023-01-20T23:43:07;6.03;;;2.13;;
54665;SDS011;40566;50.006;36.180;2023-01-20T23:48:08;7.45;;;2.88;;
54665;SDS011;40566;50.006;36.180;2023-01-20T23:53:09;3.95;;;1.35;;
54665;SDS011;40566;50.006;36.180;2023-01-20T23:58:09;9.77;;;1.60;;
